createdAt,value
2019-03-01T00:01:22.022Z,13.60
2019-03-01T00:03:25.671Z,13.90
2019-03-01T00:05:35.210Z,13.90
2019-03-01T00:08:09.935Z,13.90
2019-03-01T00:10:34.549Z,13.40
2019-03-01T00:12:59.359Z,13.20
2019-03-01T00:15:14.451Z,13.60
2019-03-01T00:17:38.740Z,13.60
2019-03-01T00:19:47.964Z,13.50
2019-03-01T00:21:57.429Z,13.80
2019-03-01T00:24:15.599Z,14.10
2019-03-01T00:26:31.201Z,14.20
2019-03-01T00:28:40.723Z,14.50
2019-03-01T00:30:50.324Z,14.70
2019-03-01T00:33:12.218Z,14.10
2019-03-01T00:35:37.964Z,14.30
2019-03-01T00:37:53.621Z,14.40
2019-03-01T00:40:18.270Z,14.50
2019-03-01T00:42:33.548Z,14.20
2019-03-01T00:44:41.319Z,14.50
2019-03-01T00:46:44.986Z,14.60
2019-03-01T00:48:48.686Z,14.70
2019-03-01T00:50:52.447Z,14.80
2019-03-01T00:52:56.102Z,15.00
2019-03-01T00:54:59.802Z,15.00
2019-03-01T00:57:03.715Z,15.10
2019-03-01T00:59:07.438Z,15.20
2019-03-01T01:01:11.174Z,15.10
2019-03-01T01:03:14.838Z,15.10
2019-03-01T01:05:18.538Z,15.20
2019-03-01T01:07:22.339Z,15.30
2019-03-01T01:09:26.044Z,15.30
2019-03-01T01:11:29.703Z,15.40
2019-03-01T01:13:33.417Z,15.40
2019-03-01T01:15:37.145Z,15.40
2019-03-01T01:17:40.803Z,15.40
2019-03-01T01:19:44.496Z,15.30
2019-03-01T01:21:48.163Z,15.30
2019-03-01T01:23:51.845Z,15.30
2019-03-01T01:25:55.534Z,15.30
2019-03-01T01:27:59.201Z,15.30
2019-03-01T01:30:02.887Z,15.30
2019-03-01T01:32:06.581Z,15.20
2019-03-01T01:34:10.319Z,15.20
2019-03-01T01:36:13.993Z,15.10
2019-03-01T01:38:17.662Z,15.10
2019-03-01T01:40:21.348Z,15.10
2019-03-01T01:42:25.026Z,15.10
2019-03-01T01:44:28.701Z,15.10
2019-03-01T01:46:32.363Z,15.10
2019-03-01T01:48:36.238Z,15.10
2019-03-01T01:50:39.927Z,14.90
2019-03-01T01:52:43.594Z,14.50
2019-03-01T01:54:47.258Z,14.50
2019-03-01T01:56:50.959Z,14.50
2019-03-01T01:58:54.642Z,14.50
2019-03-01T02:00:58.330Z,14.60
2019-03-01T02:03:02.006Z,14.50
2019-03-01T02:05:06.452Z,14.10
2019-03-01T02:07:10.202Z,14.20
2019-03-01T02:09:16.793Z,14.20
2019-03-01T02:11:20.586Z,14.30
2019-03-01T02:13:24.258Z,14.30
2019-03-01T02:15:27.916Z,14.30
2019-03-01T02:17:31.615Z,14.40
2019-03-01T02:19:35.270Z,14.50
2019-03-01T02:21:38.974Z,14.50
2019-03-01T02:23:42.642Z,14.30
2019-03-01T02:25:46.322Z,14.40
2019-03-01T02:27:50.012Z,14.40
2019-03-01T02:29:53.773Z,14.40
2019-03-01T02:31:57.464Z,14.40
2019-03-01T02:34:01.179Z,14.40
2019-03-01T02:36:04.847Z,14.50
2019-03-01T02:38:08.550Z,14.50
2019-03-01T02:40:14.315Z,14.40
2019-03-01T02:42:18.008Z,14.40
2019-03-01T02:44:21.662Z,14.40
2019-03-01T02:46:25.324Z,14.50
2019-03-01T02:48:29.142Z,14.40
2019-03-01T02:50:32.826Z,14.30
2019-03-01T02:52:36.533Z,14.30
2019-03-01T02:54:40.227Z,14.10
2019-03-01T02:56:43.905Z,14.20
2019-03-01T02:58:47.585Z,14.30
2019-03-01T03:00:51.254Z,14.20
2019-03-01T03:02:54.942Z,14.20
2019-03-01T03:04:58.624Z,14.20
2019-03-01T03:07:06.637Z,14.30
2019-03-01T03:09:11.028Z,14.20
2019-03-01T03:11:14.679Z,14.00
2019-03-01T03:13:18.375Z,14.00
2019-03-01T03:15:23.604Z,13.90
2019-03-01T03:17:27.264Z,13.90
2019-03-01T03:19:30.947Z,13.80
2019-03-01T03:21:34.608Z,14.00
2019-03-01T03:23:38.387Z,13.90
2019-03-01T03:25:42.036Z,13.80
2019-03-01T03:27:45.778Z,13.70
2019-03-01T03:29:49.458Z,13.50
2019-03-01T03:31:53.118Z,13.70
2019-03-01T03:33:56.803Z,13.50
2019-03-01T03:36:00.456Z,13.70
2019-03-01T03:38:04.122Z,13.70
2019-03-01T03:40:13.274Z,13.40
2019-03-01T03:42:16.936Z,13.50
2019-03-01T03:44:20.640Z,13.30
2019-03-01T03:46:24.304Z,13.20
2019-03-01T03:48:27.963Z,13.20
2019-03-01T03:50:31.755Z,13.40
2019-03-01T03:52:35.410Z,13.50
2019-03-01T03:54:39.129Z,13.60
2019-03-01T03:56:42.790Z,13.60
2019-03-01T03:58:46.449Z,13.60
2019-03-01T04:00:50.230Z,13.70
2019-03-01T04:02:54.142Z,13.80
2019-03-01T04:04:57.849Z,13.60
2019-03-01T04:07:01.542Z,13.70
2019-03-01T04:09:06.403Z,13.60
2019-03-01T04:11:10.097Z,13.60
2019-03-01T04:13:13.775Z,13.60
2019-03-01T04:15:18.003Z,13.70
2019-03-01T04:17:21.659Z,13.60
2019-03-01T04:19:25.331Z,13.70
2019-03-01T04:21:29.026Z,13.60
2019-03-01T04:23:32.919Z,13.60
2019-03-01T04:25:36.642Z,13.80
2019-03-01T04:27:40.305Z,13.60
2019-03-01T04:29:43.968Z,13.60
2019-03-01T04:31:47.657Z,13.40
2019-03-01T04:33:51.311Z,13.60
2019-03-01T04:35:54.995Z,13.80
2019-03-01T04:37:58.826Z,13.70
2019-03-01T04:40:02.578Z,13.40
2019-03-01T04:42:06.260Z,13.40
2019-03-01T04:44:09.941Z,13.50
2019-03-01T04:46:13.613Z,13.60
2019-03-01T04:48:17.271Z,13.80
2019-03-01T04:50:20.943Z,13.90
2019-03-01T04:52:31.974Z,14.00
2019-03-01T04:54:35.634Z,14.00
2019-03-01T04:56:39.324Z,13.70
2019-03-01T04:58:42.975Z,13.60
2019-03-01T05:00:46.745Z,13.40
2019-03-01T05:02:50.438Z,13.50
2019-03-01T05:04:54.083Z,13.70
2019-03-01T05:06:57.776Z,13.60
2019-03-01T05:09:01.506Z,13.60
2019-03-01T05:11:05.344Z,13.40
2019-03-01T05:13:09.074Z,13.30
2019-03-01T05:15:23.972Z,13.20
2019-03-01T05:17:27.668Z,13.40
2019-03-01T05:19:31.337Z,13.40
2019-03-01T05:21:34.994Z,13.40
2019-03-01T05:23:38.698Z,13.60
2019-03-01T05:25:42.358Z,13.70
2019-03-01T05:27:46.072Z,13.90
2019-03-01T05:29:49.738Z,14.00
2019-03-01T05:31:53.400Z,14.00
2019-03-01T05:33:57.096Z,14.00
2019-03-01T05:36:00.742Z,13.70
2019-03-01T05:38:05.255Z,13.70
2019-03-01T05:40:16.194Z,13.60
2019-03-01T05:42:19.896Z,13.60
2019-03-01T05:44:23.643Z,13.50
2019-03-01T05:46:27.385Z,13.50
2019-03-01T05:48:31.077Z,13.40
2019-03-01T05:50:34.727Z,13.60
2019-03-01T05:52:38.387Z,13.40
2019-03-01T05:54:42.073Z,13.40
2019-03-01T05:56:45.730Z,13.30
2019-03-01T05:58:51.462Z,13.20
2019-03-01T06:00:57.440Z,13.10
2019-03-01T06:03:06.838Z,13.20
2019-03-01T06:05:12.826Z,13.40
2019-03-01T06:07:22.239Z,13.40
2019-03-01T06:09:37.923Z,13.30
2019-03-01T06:12:10.333Z,13.50
2019-03-01T06:14:32.052Z,13.50
2019-03-01T06:16:40.136Z,13.60
2019-03-01T06:19:18.859Z,13.30
2019-03-01T06:21:25.486Z,13.30
2019-03-01T06:23:37.762Z,13.10
2019-03-01T06:25:56.383Z,13.10
2019-03-01T06:28:21.019Z,13.20
2019-03-01T06:30:51.688Z,13.20
2019-03-01T06:33:10.310Z,13.10
2019-03-01T06:35:16.918Z,13.10
2019-03-01T06:37:39.820Z,13.10
2019-03-01T06:40:20.927Z,13.10
2019-03-01T06:42:50.179Z,13.10
2019-03-01T06:45:29.999Z,13.20
2019-03-01T06:47:45.321Z,13.10
2019-03-01T06:49:50.566Z,12.90
2019-03-01T06:51:54.248Z,13.20
2019-03-01T06:53:57.958Z,13.30
2019-03-01T06:56:01.615Z,13.40
2019-03-01T06:58:07.317Z,13.40
2019-03-01T07:00:12.082Z,13.40
2019-03-01T07:02:17.319Z,13.50
2019-03-01T07:04:21.008Z,13.60
2019-03-01T07:06:24.682Z,13.70
2019-03-01T07:08:28.371Z,13.80
2019-03-01T07:10:32.035Z,13.90
2019-03-01T07:12:35.694Z,14.00
2019-03-01T07:14:39.385Z,13.70
2019-03-01T07:16:43.036Z,13.60
2019-03-01T07:18:46.727Z,13.60
2019-03-01T07:20:50.382Z,13.20
2019-03-01T07:22:54.050Z,12.70
2019-03-01T07:24:57.834Z,13.10
2019-03-01T07:27:01.491Z,13.20
2019-03-01T07:29:05.373Z,13.20
2019-03-01T07:31:09.030Z,13.10
2019-03-01T07:33:12.734Z,13.40
2019-03-01T07:35:16.509Z,13.50
2019-03-01T07:37:21.894Z,13.60
2019-03-01T07:39:25.740Z,13.70
2019-03-01T07:41:29.421Z,13.80
2019-03-01T07:43:33.186Z,13.60
2019-03-01T07:45:36.841Z,13.70
2019-03-01T07:47:40.512Z,13.60
2019-03-01T07:49:44.247Z,13.20
2019-03-01T07:51:47.901Z,11.70
2019-03-01T07:53:51.574Z,10.70
2019-03-01T07:55:55.263Z,10.90
2019-03-01T07:57:58.911Z,10.50
2019-03-01T08:00:02.597Z,11.00
2019-03-01T08:02:06.251Z,11.20
2019-03-01T08:04:09.907Z,10.70
2019-03-01T08:06:14.328Z,11.30
2019-03-01T08:08:18.172Z,11.50
2019-03-01T08:10:22.989Z,10.50
2019-03-01T08:12:27.067Z,10.80
2019-03-01T08:14:31.643Z,10.90
2019-03-01T08:16:35.511Z,11.50
2019-03-01T08:18:40.106Z,10.50
2019-03-01T08:20:44.579Z,11.10
2019-03-01T08:22:49.470Z,11.70
2019-03-01T08:24:53.527Z,12.10
2019-03-01T08:26:57.201Z,12.40
2019-03-01T08:29:00.922Z,12.50
2019-03-01T08:31:04.719Z,12.60
2019-03-01T08:33:08.582Z,12.60
2019-03-01T08:35:13.794Z,12.90
2019-03-01T08:37:17.629Z,11.80
2019-03-01T08:39:22.110Z,12.30
2019-03-01T08:41:26.310Z,12.70
2019-03-01T08:43:30.159Z,12.90
2019-03-01T08:45:33.859Z,13.10
2019-03-01T08:47:37.551Z,13.10
2019-03-01T08:49:41.190Z,13.30
2019-03-01T08:51:44.870Z,13.40
2019-03-01T08:53:51.022Z,13.40
2019-03-01T08:55:54.259Z,13.30
2019-03-01T08:57:59.471Z,13.40
2019-03-01T09:00:03.905Z,13.40
2019-03-01T09:02:07.728Z,12.60
2019-03-01T09:04:17.387Z,12.10
2019-03-01T09:06:19.432Z,12.10
2019-03-01T09:08:23.114Z,12.50
2019-03-01T09:10:29.237Z,12.80
2019-03-01T09:12:32.335Z,13.00
2019-03-01T09:14:36.007Z,12.90
2019-03-01T09:16:41.060Z,12.60
2019-03-01T09:18:46.589Z,12.70
2019-03-01T09:20:50.251Z,11.80
2019-03-01T09:22:54.033Z,11.70
2019-03-01T09:24:57.750Z,11.20
2019-03-01T09:27:01.423Z,11.30
2019-03-01T09:29:05.121Z,12.00
2019-03-01T09:31:08.780Z,12.60
2019-03-01T09:33:12.469Z,12.70
2019-03-01T09:35:25.365Z,12.30
2019-03-01T09:37:29.656Z,12.70
2019-03-01T09:39:34.466Z,12.70
2019-03-01T09:41:40.606Z,12.90
2019-03-01T09:43:43.545Z,13.10
2019-03-01T09:45:48.832Z,13.00
2019-03-01T09:47:52.610Z,12.70
2019-03-01T09:49:56.512Z,12.40
2019-03-01T09:52:01.650Z,12.00
2019-03-01T09:54:06.495Z,12.40
2019-03-01T09:56:12.993Z,12.60
2019-03-01T09:58:16.182Z,13.00
2019-03-01T10:00:28.591Z,12.90
2019-03-01T10:02:32.261Z,13.10
2019-03-01T10:04:35.943Z,13.20
2019-03-01T10:06:39.608Z,13.60
2019-03-01T10:08:43.581Z,13.30
2019-03-01T10:10:47.307Z,13.30
2019-03-01T10:12:50.960Z,13.40
2019-03-01T10:14:54.643Z,12.90
2019-03-01T10:16:58.327Z,13.10
2019-03-01T10:19:02.014Z,13.50
2019-03-01T10:21:05.775Z,13.80
2019-03-01T10:23:09.430Z,13.90
2019-03-01T10:25:17.477Z,13.60
2019-03-01T10:27:21.165Z,13.40
2019-03-01T10:29:24.894Z,13.30
2019-03-01T10:31:28.640Z,13.60
2019-03-01T10:33:32.310Z,13.40
2019-03-01T10:35:35.994Z,13.50
2019-03-01T10:37:39.696Z,13.40
2019-03-01T10:39:43.373Z,13.00
2019-03-01T10:41:48.666Z,12.70
2019-03-01T10:43:53.434Z,12.10
2019-03-01T10:45:57.127Z,12.60
2019-03-01T10:48:00.786Z,12.90
2019-03-01T10:50:06.541Z,11.90
2019-03-01T10:52:10.310Z,12.00
2019-03-01T10:54:13.970Z,11.90
2019-03-01T10:56:17.671Z,12.20
2019-03-01T10:58:21.347Z,12.70
2019-03-01T11:00:26.626Z,13.00
2019-03-01T11:02:30.335Z,12.90
2019-03-01T11:04:34.088Z,12.60
2019-03-01T11:06:37.821Z,12.70
2019-03-01T11:08:41.476Z,13.20
2019-03-01T11:10:45.140Z,13.70
2019-03-01T11:12:48.816Z,13.50
2019-03-01T11:14:52.485Z,13.60
2019-03-01T11:16:56.174Z,13.90
2019-03-01T11:18:59.855Z,13.80
2019-03-01T11:21:03.514Z,14.10
2019-03-01T11:23:07.196Z,14.10
2019-03-01T11:25:13.057Z,14.20
2019-03-01T11:27:16.723Z,14.40
2019-03-01T11:29:20.385Z,14.20
2019-03-01T11:31:24.056Z,14.20
2019-03-01T11:33:27.735Z,14.20
2019-03-01T11:35:31.401Z,14.20
2019-03-01T11:37:35.118Z,14.30
2019-03-01T11:39:38.794Z,14.40
2019-03-01T11:41:42.465Z,13.90
2019-03-01T11:43:46.159Z,13.70
2019-03-01T11:45:49.825Z,13.60
2019-03-01T11:47:53.542Z,13.70
2019-03-01T11:49:57.260Z,13.70
2019-03-01T11:52:00.919Z,13.60
2019-03-01T11:54:04.700Z,13.10
2019-03-01T11:56:08.361Z,13.40
2019-03-01T11:58:12.040Z,13.30
2019-03-01T12:00:23.381Z,13.40
2019-03-01T12:02:27.051Z,12.90
2019-03-01T12:04:30.734Z,12.90
2019-03-01T12:06:34.400Z,13.00
2019-03-01T12:08:38.086Z,12.90
2019-03-01T12:10:41.773Z,12.90
2019-03-01T12:12:45.446Z,12.10
2019-03-01T12:14:49.141Z,12.00
2019-03-01T12:16:52.795Z,12.00
2019-03-01T12:18:56.524Z,11.90
2019-03-01T12:21:00.207Z,12.30
2019-03-01T12:23:03.871Z,12.70
2019-03-01T12:25:10.487Z,13.00
2019-03-01T12:27:14.210Z,13.40
2019-03-01T12:29:17.920Z,13.20
2019-03-01T12:31:21.579Z,12.70
2019-03-01T12:33:25.487Z,12.90
2019-03-01T12:35:29.186Z,12.70
2019-03-01T12:37:32.835Z,12.40
2019-03-01T12:39:36.523Z,12.50
2019-03-01T12:41:40.199Z,11.90
2019-03-01T12:43:43.863Z,11.90
2019-03-01T12:45:47.545Z,12.10
2019-03-01T12:47:51.211Z,12.50
2019-03-01T12:49:54.862Z,12.70
2019-03-01T12:51:58.568Z,12.70
2019-03-01T12:54:02.325Z,13.20
2019-03-01T12:56:06.036Z,13.50
2019-03-01T12:58:19.037Z,13.20
2019-03-01T13:00:27.088Z,13.50
2019-03-01T13:02:30.753Z,13.20
2019-03-01T13:04:34.517Z,13.20
2019-03-01T13:06:38.993Z,13.20
2019-03-01T13:08:43.564Z,13.30
2019-03-01T13:10:47.253Z,13.00
2019-03-01T13:12:51.013Z,12.50
2019-03-01T13:14:54.682Z,12.50
2019-03-01T13:16:58.526Z,12.20
2019-03-01T13:19:03.772Z,12.40
2019-03-01T13:21:09.608Z,12.10
2019-03-01T13:23:12.859Z,12.20
2019-03-01T13:25:16.602Z,12.00
2019-03-01T13:27:20.290Z,12.20
2019-03-01T13:29:23.949Z,12.20
2019-03-01T13:31:27.666Z,11.40
2019-03-01T13:33:31.311Z,11.30
2019-03-01T13:35:34.978Z,11.20
2019-03-01T13:37:38.670Z,11.10
2019-03-01T13:39:45.044Z,11.50
2019-03-01T13:41:48.223Z,11.60
2019-03-01T13:43:51.933Z,11.70
2019-03-01T13:45:55.615Z,12.40
2019-03-01T13:47:59.314Z,12.60
2019-03-01T13:50:06.090Z,11.70
2019-03-01T13:52:08.424Z,11.60
2019-03-01T13:54:12.075Z,11.30
2019-03-01T13:56:15.738Z,11.20
2019-03-01T13:58:20.471Z,10.70
2019-03-01T14:00:24.278Z,10.90
2019-03-01T14:02:28.088Z,10.40
2019-03-01T14:04:31.758Z,10.80
2019-03-01T14:06:35.430Z,11.30
2019-03-01T14:08:39.098Z,10.60
2019-03-01T14:10:43.219Z,11.80
2019-03-01T14:12:47.033Z,10.60
2019-03-01T14:14:50.678Z,10.50
2019-03-01T14:16:54.363Z,10.50
2019-03-01T14:18:58.139Z,10.40
2019-03-01T14:21:03.875Z,11.20
2019-03-01T14:23:07.414Z,11.60
2019-03-01T14:25:14.883Z,11.80
2019-03-01T14:27:18.551Z,11.60
2019-03-01T14:29:22.227Z,11.50
2019-03-01T14:31:25.901Z,11.50
2019-03-01T14:33:29.988Z,11.70
2019-03-01T14:35:34.972Z,11.60
2019-03-01T14:37:38.729Z,11.50
2019-03-01T14:39:45.386Z,12.10
2019-03-01T14:41:47.967Z,12.10
2019-03-01T14:43:51.678Z,12.30
2019-03-01T14:45:55.350Z,11.70
2019-03-01T14:47:59.016Z,11.90
2019-03-01T14:50:02.710Z,11.70
2019-03-01T14:52:06.471Z,12.10
2019-03-01T14:54:10.756Z,12.20
2019-03-01T14:56:21.542Z,12.50
2019-03-01T14:58:31.291Z,13.00
2019-03-01T15:00:37.911Z,13.30
2019-03-01T15:02:52.668Z,13.00
2019-03-01T15:04:56.356Z,12.50
2019-03-01T15:07:00.030Z,12.60
2019-03-01T15:09:04.713Z,12.90
2019-03-01T15:11:13.494Z,12.70
2019-03-01T15:13:17.327Z,13.20
2019-03-01T15:15:22.973Z,13.70
2019-03-01T15:17:26.387Z,13.80
2019-03-01T15:19:30.095Z,13.10
2019-03-01T15:21:34.101Z,13.00
2019-03-01T15:23:39.159Z,13.10
2019-03-01T15:25:47.501Z,13.40
2019-03-01T15:27:48.218Z,13.50
2019-03-01T15:29:51.923Z,13.20
2019-03-01T15:31:56.084Z,13.40
2019-03-01T15:33:59.819Z,13.70
2019-03-01T15:36:03.509Z,13.70
2019-03-01T15:38:07.167Z,13.20
2019-03-01T15:40:11.750Z,13.00
2019-03-01T15:42:17.548Z,12.90
2019-03-01T15:44:20.789Z,12.90
2019-03-01T15:46:24.477Z,13.10
2019-03-01T15:48:28.134Z,13.30
2019-03-01T15:50:31.799Z,13.10
2019-03-01T15:52:35.586Z,13.00
2019-03-01T15:54:39.239Z,13.40
2019-03-01T15:56:43.766Z,13.70
2019-03-01T15:58:47.474Z,13.90
2019-03-01T16:00:51.173Z,13.70
2019-03-01T16:02:54.879Z,12.70
2019-03-01T16:04:58.545Z,12.40
2019-03-01T16:07:02.413Z,12.70
2019-03-01T16:09:07.940Z,13.30
2019-03-01T16:11:12.759Z,13.10
2019-03-01T16:13:17.291Z,13.10
2019-03-01T16:15:20.964Z,12.90
2019-03-01T16:17:25.419Z,12.90
2019-03-01T16:19:29.202Z,12.70
2019-03-01T16:21:32.853Z,12.90
2019-03-01T16:23:36.554Z,13.00
2019-03-01T16:25:40.204Z,13.30
2019-03-01T16:27:43.904Z,13.40
2019-03-01T16:29:47.567Z,13.60
2019-03-01T16:31:51.375Z,13.70
2019-03-01T16:33:55.085Z,13.50
2019-03-01T16:36:00.913Z,13.50
2019-03-01T16:38:04.778Z,13.60
2019-03-01T16:40:11.102Z,13.80
2019-03-01T16:42:17.921Z,13.90
2019-03-01T16:44:20.917Z,13.90
2019-03-01T16:46:24.566Z,14.00
2019-03-01T16:48:28.374Z,13.80
2019-03-01T16:50:32.050Z,13.80
2019-03-01T16:52:35.710Z,13.80
2019-03-01T16:54:39.403Z,13.40
2019-03-01T16:56:43.060Z,13.40
2019-03-01T16:58:46.768Z,13.50
2019-03-01T17:00:50.798Z,13.40
2019-03-01T17:03:04.742Z,13.50
2019-03-01T17:05:10.123Z,13.60
2019-03-01T17:07:13.851Z,13.70
2019-03-01T17:09:17.533Z,13.70
2019-03-01T17:11:21.280Z,13.80
2019-03-01T17:13:27.033Z,13.90
2019-03-01T17:15:30.349Z,13.90
2019-03-01T17:17:36.826Z,13.90
2019-03-01T17:19:39.427Z,13.90
2019-03-01T17:21:43.112Z,13.90
2019-03-01T17:23:46.767Z,13.60
2019-03-01T17:25:50.557Z,13.60
2019-03-01T17:27:54.238Z,13.60
2019-03-01T17:29:57.941Z,13.80
2019-03-01T17:32:02.061Z,13.90
2019-03-01T17:34:06.360Z,13.30
2019-03-01T17:36:12.979Z,13.30
2019-03-01T17:38:15.430Z,13.20
2019-03-01T17:40:19.234Z,13.10
2019-03-01T17:42:22.899Z,13.30
2019-03-01T17:44:26.570Z,13.30
2019-03-01T17:46:32.938Z,13.50
2019-03-01T17:48:35.654Z,13.70
2019-03-01T17:50:41.716Z,13.80
2019-03-01T17:52:44.799Z,14.00
2019-03-01T17:54:48.454Z,14.00
2019-03-01T17:56:54.007Z,14.00
2019-03-01T17:58:57.816Z,14.00
2019-03-01T18:01:02.766Z,14.10
2019-03-01T18:03:06.914Z,14.00
2019-03-01T18:05:12.187Z,13.90
2019-03-01T18:07:15.871Z,13.40
2019-03-01T18:09:19.550Z,13.30
2019-03-01T18:11:23.363Z,13.20
2019-03-01T18:13:27.172Z,13.20
2019-03-01T18:15:30.830Z,12.70
2019-03-01T18:17:36.591Z,12.90
2019-03-01T18:19:39.978Z,13.30
2019-03-01T18:21:46.321Z,13.30
2019-03-01T18:23:49.517Z,13.40
2019-03-01T18:25:53.332Z,13.70
2019-03-01T18:27:57.001Z,13.70
2019-03-01T18:30:00.690Z,13.70
2019-03-01T18:32:06.955Z,13.70
2019-03-01T18:34:09.789Z,13.70
2019-03-01T18:36:13.547Z,13.60
2019-03-01T18:38:17.278Z,13.70
2019-03-01T18:40:20.987Z,13.40
2019-03-01T18:42:24.686Z,13.30
2019-03-01T18:44:28.509Z,13.50
2019-03-01T18:46:32.207Z,13.70
2019-03-01T18:48:35.893Z,13.80
2019-03-01T18:50:40.071Z,13.50
2019-03-01T18:52:43.770Z,12.90
2019-03-01T18:54:47.458Z,12.70
2019-03-01T18:56:51.113Z,13.10
2019-03-01T18:58:54.819Z,13.30
2019-03-01T19:00:58.499Z,13.60
2019-03-01T19:03:04.586Z,13.30
2019-03-01T19:05:07.587Z,13.30
2019-03-01T19:07:11.279Z,13.10
2019-03-01T19:09:16.424Z,13.20
2019-03-01T19:11:21.234Z,13.20
2019-03-01T19:13:25.662Z,12.90
2019-03-01T19:15:29.559Z,12.00
2019-03-01T19:17:33.276Z,11.60
2019-03-01T19:19:37.015Z,11.10
2019-03-01T19:21:40.683Z,11.20
2019-03-01T19:23:44.406Z,11.30
2019-03-01T19:25:48.083Z,11.70
2019-03-01T19:27:51.870Z,12.30
2019-03-01T19:29:55.609Z,12.60
2019-03-01T19:31:59.288Z,12.90
2019-03-01T19:34:02.973Z,13.00
2019-03-01T19:36:06.667Z,13.20
2019-03-01T19:38:10.334Z,13.10
2019-03-01T19:40:16.961Z,13.20
2019-03-01T19:42:20.632Z,13.30
2019-03-01T19:44:25.643Z,13.30
2019-03-01T19:46:29.710Z,12.90
2019-03-01T19:48:34.523Z,12.90
2019-03-01T19:50:38.794Z,13.10
2019-03-01T19:52:43.466Z,12.80
2019-03-01T19:54:47.935Z,12.80
2019-03-01T19:56:51.607Z,12.90
2019-03-01T19:58:55.287Z,12.60
2019-03-01T20:00:59.056Z,12.40
2019-03-01T20:03:02.728Z,12.10
2019-03-01T20:05:09.506Z,12.20
2019-03-01T20:07:16.017Z,11.90
2019-03-01T20:09:18.682Z,11.20
2019-03-01T20:11:23.381Z,11.40
2019-03-01T20:13:27.758Z,11.30
2019-03-01T20:15:31.984Z,11.50
2019-03-01T20:17:44.051Z,10.80
2019-03-01T20:19:41.051Z,10.70
2019-03-01T20:21:44.921Z,10.70
2019-03-01T20:23:49.066Z,10.80
2019-03-01T20:25:52.775Z,10.60
2019-03-01T20:27:56.473Z,10.70
2019-03-01T20:30:00.292Z,11.10
2019-03-01T20:32:04.494Z,11.00
2019-03-01T20:34:08.188Z,10.70
2019-03-01T20:36:13.880Z,10.50
2019-03-01T20:38:17.280Z,10.40
2019-03-01T20:40:22.768Z,10.80
2019-03-01T20:42:26.482Z,10.90
2019-03-01T20:44:30.229Z,10.90
2019-03-01T20:46:33.927Z,10.70
2019-03-01T20:48:37.619Z,11.30
2019-03-01T20:50:41.391Z,11.20
2019-03-01T20:52:45.080Z,11.40
2019-03-01T20:54:48.747Z,11.50
2019-03-01T20:56:52.742Z,11.80
2019-03-01T20:58:56.431Z,12.10
2019-03-01T21:01:01.997Z,12.40
2019-03-01T21:03:05.558Z,12.50
2019-03-01T21:05:13.371Z,11.30
2019-03-01T21:07:17.128Z,11.20
2019-03-01T21:09:20.801Z,10.60
2019-03-01T21:11:25.550Z,11.00
2019-03-01T21:13:29.882Z,11.30
2019-03-01T21:15:34.642Z,11.30
2019-03-01T21:17:39.098Z,11.10
2019-03-01T21:19:43.805Z,11.10
2019-03-01T21:21:48.431Z,10.70
2019-03-01T21:23:52.130Z,10.60
2019-03-01T21:25:55.819Z,10.50
2019-03-01T21:28:00.874Z,10.20
2019-03-01T21:30:10.075Z,10.50
2019-03-01T21:32:14.684Z,10.80
2019-03-01T21:34:18.676Z,10.60
2019-03-01T21:36:23.043Z,10.50
2019-03-01T21:38:27.838Z,10.50
2019-03-01T21:40:34.556Z,10.80
2019-03-01T21:42:36.906Z,10.80
2019-03-01T21:44:42.687Z,10.70
2019-03-01T21:46:45.987Z,11.10
2019-03-01T21:48:49.794Z,11.50
2019-03-01T21:50:53.460Z,11.20
2019-03-01T21:52:57.138Z,11.50
2019-03-01T21:55:01.034Z,11.50
2019-03-01T21:57:04.700Z,11.30
2019-03-01T21:59:08.423Z,10.90
2019-03-01T22:01:12.088Z,10.90
2019-03-01T22:03:15.801Z,10.90
2019-03-01T22:05:19.583Z,10.70
2019-03-01T22:07:23.257Z,10.90
2019-03-01T22:09:26.941Z,11.10
2019-03-01T22:11:30.607Z,11.20
2019-03-01T22:13:35.710Z,11.40
2019-03-01T22:15:39.808Z,11.20
2019-03-01T22:17:45.342Z,11.10
2019-03-01T22:19:48.917Z,11.40
2019-03-01T22:21:54.719Z,11.60
2019-03-01T22:23:58.079Z,11.80
2019-03-01T22:26:01.775Z,11.70
2019-03-01T22:28:05.462Z,11.50
2019-03-01T22:30:23.075Z,11.70
2019-03-01T22:32:26.019Z,11.90
2019-03-01T22:34:31.152Z,11.30
2019-03-01T22:36:35.089Z,11.30
2019-03-01T22:38:41.465Z,11.40
2019-03-01T22:40:44.218Z,11.00
2019-03-01T22:42:49.689Z,10.40
2019-03-01T22:44:53.463Z,10.50
2019-03-01T22:46:57.860Z,11.10
2019-03-01T22:49:02.638Z,10.80
2019-03-01T22:51:06.427Z,10.20
2019-03-01T22:53:10.091Z,10.40
2019-03-01T22:55:15.452Z,10.60
2019-03-01T22:57:22.467Z,11.00
2019-03-01T22:59:24.534Z,11.60
2019-03-01T23:01:32.701Z,10.40
2019-03-01T23:03:36.876Z,10.60
2019-03-01T23:05:40.539Z,9.90
2019-03-01T23:07:44.331Z,10.70
2019-03-01T23:09:47.989Z,10.40
2019-03-01T23:11:51.687Z,10.40
2019-03-01T23:13:55.701Z,10.20
2019-03-01T23:16:00.285Z,10.10
2019-03-01T23:18:05.673Z,10.30
2019-03-01T23:20:11.379Z,10.80
2019-03-01T23:22:15.126Z,10.80
2019-03-01T23:24:18.815Z,10.80
2019-03-01T23:26:22.478Z,11.20
2019-03-01T23:28:26.194Z,11.50
2019-03-01T23:30:29.910Z,11.60
2019-03-01T23:32:33.646Z,11.80
2019-03-01T23:34:38.991Z,11.90
2019-03-01T23:36:42.927Z,10.90
2019-03-01T23:38:50.065Z,10.70
2019-03-01T23:40:52.014Z,10.30
2019-03-01T23:42:56.240Z,10.40
2019-03-01T23:45:00.858Z,10.40
2019-03-01T23:47:04.550Z,10.90
2019-03-01T23:49:08.247Z,11.10
2019-03-01T23:51:11.994Z,11.50
2019-03-01T23:53:15.677Z,11.70
2019-03-01T23:55:19.997Z,12.00
2019-03-01T23:57:23.685Z,12.30
2019-03-01T23:59:27.560Z,12.30
